This is the latest recevied weather packets stored in our database for station/object DO1BDB-12. If no packets are shown the sender has not sent any weather packets the latest 10 day(s).
| Time | Temp. | Humidity | Pressure | Rain* | Wind** | Luminosity | Snow |
|---|---|---|---|---|---|---|---|
| 1787724129 | 18.89° C | 62% | 102.2 hPa | - | - | - | - |
| 1787724064 | 22.22° C | 52% | 102.2 hPa | - | - | - | - |
| 1787723999 | 22.78° C | 52% | 102.2 hPa | - | - | - | - |
| 1787723932 | 21.67° C | 56% | 102.2 hPa | - | - | - | - |
| 1787723866 | 20° C | 60% | 102.2 hPa | - | - | - | - |
| 1787723800 | 19.44° C | 62% | 102.2 hPa | - | - | - | - |
| 1787723734 | 20° C | 58% | 102.2 hPa | - | - | - | - |
| 1787723668 | 22.22° C | 53% | 102.2 hPa | - | - | - | - |
| 1787723603 | 23.33° C | 53% | 102.2 hPa | - | - | - | - |
| 1787723537 | 22.22° C | 54% | 102.2 hPa | - | - | - | - |
| 1787723471 | 20.56° C | 60% | 102.2 hPa | - | - | - | - |
| 1787723405 | 20.56° C | 58% | 102.2 hPa | - | - | - | - |
| 1787723405 | 20.56° C | 58% | 102.2 hPa | - | - | - | - |
| 1787723339 | 20° C | 62% | 102.2 hPa | - | - | - | - |
| 1787723274 | 20° C | 60% | 102.2 hPa | - | - | - | - |
| 1787723208 | 21.11° C | 60% | 102.2 hPa | - | - | - | - |
| 1787723142 | 20° C | 59% | 102.2 hPa | - | - | - | - |
| 1787723076 | 20° C | 59% | 102.2 hPa | - | - | - | - |
| 1787723010 | 20.56° C | 57% | 102.2 hPa | - | - | - | - |
| 1787722944 | 21.11° C | 58% | 102.2 hPa | - | - | - | - |
| 1787722879 | 22.22° C | 56% | 102.2 hPa | - | - | - | - |
| 1787722813 | 22.22° C | 56% | 102.2 hPa | - | - | - | - |
| 1787722747 | 20° C | 61% | 102.2 hPa | - | - | - | - |
| 1787722681 | 19.44° C | 60% | 102.2 hPa | - | - | - | - |
| 1787722615 | 21.11° C | 57% | 102.2 hPa | - | - | - | - |
* Rain since midnight (hover to see other rain measurements)
** Current wind speed in m/s (hover to see current wind gust speed)